Time;durP1;ratioP1;P1;durP2;ratioP2;P2;SDS_P1;SDS_P2;PMS_P1;PMS_P2;Temp;Humidity;BMP_temperature;BMP_pressure;BME280_temperature;BME280_humidity;BME280_pressure;Samples;Min_cycle;Max_cycle;Signal;HPM_P1;HPM_P2
2023/06/07 00:02:11;;;;;;;;;;;14.20;99.90;;;;;;5043558;28;19988;-71
2023/06/07 00:04:39;;;;;;;;;;;14.20;99.90;;;;;;5042750;28;19921;-71
2023/06/07 00:07:06;;;;;;;;;;;14.10;99.90;;;;;;5043304;28;19921;-71
2023/06/07 00:09:32;;;;;;;;;;;14.20;99.90;;;;;;5043415;28;19984;-70
2023/06/07 00:11:59;;;;;;;;;;;14.10;99.90;;;;;;5043611;28;19956;-70
2023/06/07 00:14:26;;;;;;;;;;;14.10;99.90;;;;;;5042612;28;19960;-70
2023/06/07 00:16:53;;;;;;;;;;;14.10;99.90;;;;;;5043253;28;19927;-71
2023/06/07 00:19:24;;;;;;;;;;;14.00;99.90;;;;;;5043315;28;19921;-72
2023/06/07 00:21:51;;;;;;;;;;;14.00;99.90;;;;;;5032108;28;19980;-71
2023/06/07 00:24:18;;;;;;;;;;;14.00;99.90;;;;;;5042612;28;19929;-71
2023/06/07 00:26:45;;;;;;;;;;;14.00;99.90;;;;;;5043084;28;19929;-71
2023/06/07 00:29:11;;;;;;;;;;;14.00;99.90;;;;;;5041978;28;19987;-71
2023/06/07 00:31:38;;;;;;;;;;;14.00;99.90;;;;;;5043307;28;20112;-71
2023/06/07 00:34:05;;;;;;;;;;;14.00;99.90;;;;;;5042302;28;19961;-71
2023/06/07 00:36:33;;;;;;;;;;;13.90;99.90;;;;;;5043090;28;19984;-70
2023/06/07 00:39:02;;;;;;;;;;;14.00;99.90;;;;;;5043397;28;19927;-70
2023/06/07 00:41:28;;;;;;;;;;;14.00;99.90;;;;;;5042724;28;19921;-71
2023/06/07 00:43:55;;;;;;;;;;;13.90;99.90;;;;;;5042325;28;19925;-71
2023/06/07 00:46:23;;;;;;;;;;;13.80;99.90;;;;;;5042785;28;19921;-71
2023/06/07 00:48:51;;;;;;;;;;;13.70;99.90;;;;;;5040668;28;19921;-70
2023/06/07 00:51:18;;;;;;;;;;;13.70;99.90;;;;;;5039460;28;20230;-71
2023/06/07 00:53:48;;;;;;;;;;;13.70;99.90;;;;;;5043087;28;19988;-72
2023/06/07 00:56:15;;;;;;;;;;;13.70;99.90;;;;;;5040103;28;20243;-72
2023/06/07 00:58:42;;;;;;;;;;;13.70;99.90;;;;;;5036726;28;19921;-72
2023/06/07 01:01:09;;;;;;;;;;;13.70;99.90;;;;;;5042999;28;19921;-71
2023/06/07 01:03:36;;;;;;;;;;;13.70;99.90;;;;;;5042926;28;19960;-72
2023/06/07 01:06:03;;;;;;;;;;;13.70;99.90;;;;;;5041916;28;19931;-72
2023/06/07 01:08:29;;;;;;;;;;;13.70;99.90;;;;;;5042843;28;19921;-72
2023/06/07 01:10:58;;;;;;;;;;;13.70;99.90;;;;;;5029105;28;19928;-71
2023/06/07 01:13:25;;;;;;;;;;;13.70;99.90;;;;;;5042713;28;19921;-70
2023/06/07 01:15:51;;;;;;;;;;;13.70;99.90;;;;;;5041941;28;19976;-71
2023/06/07 01:18:18;;;;;;;;;;;13.70;99.90;;;;;;5042725;28;19927;-72
2023/06/07 01:20:49;;;;;;;;;;;13.70;99.90;;;;;;5042669;28;20038;-71
2023/06/07 01:23:16;;;;;;;;;;;13.70;99.90;;;;;;5043271;28;19928;-72
2023/06/07 01:25:45;;;;;;;;;;;13.70;99.90;;;;;;5044358;28;19921;-70
2023/06/07 01:28:12;;;;;;;;;;;13.70;99.90;;;;;;5040113;28;20167;-72
2023/06/07 01:30:40;;;;;;;;;;;13.70;99.90;;;;;;5050036;28;19940;-71
2023/06/07 01:33:07;;;;;;;;;;;13.70;99.90;;;;;;5049705;28;19955;-72
2023/06/07 01:35:34;;;;;;;;;;;13.70;99.90;;;;;;5048729;28;19985;-72
2023/06/07 01:38:01;;;;;;;;;;;13.70;99.90;;;;;;5049685;28;19928;-73
2023/06/07 01:40:28;;;;;;;;;;;13.80;99.90;;;;;;5044509;28;19925;-72
2023/06/07 01:42:56;;;;;;;;;;;13.70;99.90;;;;;;5046496;28;19944;-72
2023/06/07 01:45:23;;;;;;;;;;;13.70;99.90;;;;;;5045174;28;19928;-72
2023/06/07 01:47:50;;;;;;;;;;;13.80;99.90;;;;;;5046423;28;19987;-72
2023/06/07 01:50:20;;;;;;;;;;;13.70;99.90;;;;;;5046187;28;19960;-71
2023/06/07 01:52:47;;;;;;;;;;;13.60;99.90;;;;;;5043572;28;20287;-72
2023/06/07 01:55:14;;;;;;;;;;;13.60;99.90;;;;;;5045413;28;19928;-72
2023/06/07 01:57:45;;;;;;;;;;;13.60;99.90;;;;;;5037772;28;19953;-72
2023/06/07 02:00:17;;;;;;;;;;;13.60;99.90;;;;;;5046258;28;19921;-72
2023/06/07 02:02:49;;;;;;;;;;;13.50;99.90;;;;;;5046159;28;19929;-72
2023/06/07 02:05:17;;;;;;;;;;;13.50;99.90;;;;;;5045319;28;19988;-69
2023/06/07 02:07:46;;;;;;;;;;;13.50;99.90;;;;;;5046022;28;19963;-71
2023/06/07 02:10:13;;;;;;;;;;;13.50;99.90;;;;;;5045879;28;19988;-70
2023/06/07 02:12:41;;;;;;;;;;;13.40;99.90;;;;;;5045570;28;19921;-71
2023/06/07 02:15:09;;;;;;;;;;;13.40;99.90;;;;;;5044732;28;19928;-71
2023/06/07 02:17:47;;;;;;;;;;;13.40;99.90;;;;;;5045760;28;19928;-71
2023/06/07 02:20:14;;;;;;;;;;;13.40;99.90;;;;;;5045438;28;19928;-71
2023/06/07 02:22:40;;;;;;;;;;;13.30;99.90;;;;;;5045636;28;19921;-71
2023/06/07 02:25:08;;;;;;;;;;;13.30;99.90;;;;;;5044490;28;20016;-71
2023/06/07 02:27:35;;;;;;;;;;;13.20;99.90;;;;;;5037655;28;20280;-70
2023/06/07 02:30:03;;;;;;;;;;;13.20;99.90;;;;;;5045385;28;20232;-72
2023/06/07 02:32:33;;;;;;;;;;;13.20;99.90;;;;;;5045407;28;19929;-72
2023/06/07 02:35:01;;;;;;;;;;;13.20;99.90;;;;;;5037617;28;19961;-71
2023/06/07 02:37:29;;;;;;;;;;;13.20;99.90;;;;;;5045362;28;19921;-71
2023/06/07 02:39:55;;;;;;;;;;;13.10;99.90;;;;;;5045104;28;19921;-71
2023/06/07 02:42:22;;;;;;;;;;;13.10;99.90;;;;;;5045222;28;19933;-71
2023/06/07 02:44:48;;;;;;;;;;;13.10;99.90;;;;;;5044143;28;19975;-71
2023/06/07 02:47:15;;;;;;;;;;;13.10;99.90;;;;;;5044914;28;19952;-70
2023/06/07 02:49:42;;;;;;;;;;;13.10;99.90;;;;;;5045225;28;19993;-71
2023/06/07 02:52:15;;;;;;;;;;;13.10;99.90;;;;;;5044041;28;19921;-71
2023/06/07 02:54:48;;;;;;;;;;;13.00;99.90;;;;;;5043275;28;19921;-71
2023/06/07 02:57:15;;;;;;;;;;;13.00;99.90;;;;;;5044672;28;19928;-71
2023/06/07 02:59:41;;;;;;;;;;;13.00;99.90;;;;;;5044468;28;19963;-70
2023/06/07 03:02:08;;;;;;;;;;;13.00;99.90;;;;;;5044879;28;19928;-71
2023/06/07 03:04:37;;;;;;;;;;;12.90;99.90;;;;;;5043733;28;20232;-71
2023/06/07 03:07:04;;;;;;;;;;;12.90;99.90;;;;;;5044950;28;19944;-70
2023/06/07 03:09:32;;;;;;;;;;;12.90;99.90;;;;;;5044784;28;20085;-71
2023/06/07 03:11:58;;;;;;;;;;;12.80;99.90;;;;;;5033855;28;19984;-70
2023/06/07 03:14:25;;;;;;;;;;;12.80;99.90;;;;;;5043806;28;19927;-71
2023/06/07 03:16:52;;;;;;;;;;;12.70;99.90;;;;;;5044172;28;20264;-70
2023/06/07 03:19:19;;;;;;;;;;;12.70;99.90;;;;;;5044415;28;19929;-71
2023/06/07 03:21:46;;;;;;;;;;;12.80;99.90;;;;;;5041759;28;19989;-71
2023/06/07 03:24:12;;;;;;;;;;;12.70;99.90;;;;;;5043858;28;19921;-71
2023/06/07 03:26:41;;;;;;;;;;;12.70;99.90;;;;;;5041260;28;20120;-71
2023/06/07 03:29:09;;;;;;;;;;;12.70;99.90;;;;;;5035940;28;19921;-71
2023/06/07 03:31:36;;;;;;;;;;;12.60;99.90;;;;;;5044210;28;20279;-71
2023/06/07 03:34:02;;;;;;;;;;;12.60;99.90;;;;;;5037198;28;19921;-70
2023/06/07 03:36:30;;;;;;;;;;;12.60;99.90;;;;;;5043796;28;19968;-71
2023/06/07 03:39:03;;;;;;;;;;;12.60;99.90;;;;;;5042421;28;19921;-71
2023/06/07 03:41:29;;;;;;;;;;;12.60;99.90;;;;;;5027708;28;20216;-71
2023/06/07 03:43:57;;;;;;;;;;;12.60;99.90;;;;;;5038959;28;19980;-71
2023/06/07 03:46:24;;;;;;;;;;;12.60;99.90;;;;;;5043375;28;19928;-72
2023/06/07 03:48:51;;;;;;;;;;;12.60;99.90;;;;;;5042834;28;20012;-71
2023/06/07 03:51:17;;;;;;;;;;;12.60;99.90;;;;;;5043674;28;19921;-71
2023/06/07 03:53:44;;;;;;;;;;;12.60;99.90;;;;;;5044083;28;20176;-72
2023/06/07 03:56:15;;;;;;;;;;;12.60;99.90;;;;;;5039098;28;19984;-72
2023/06/07 03:58:41;;;;;;;;;;;12.60;99.90;;;;;;5043812;28;19984;-71
2023/06/07 04:01:11;;;;;;;;;;;12.60;99.90;;;;;;5040942;28;19960;-72
2023/06/07 04:03:38;;;;;;;;;;;12.60;99.90;;;;;;5023493;28;20232;-72
2023/06/07 04:06:11;;;;;;;;;;;12.60;99.90;;;;;;5020516;28;19922;-71
2023/06/07 04:08:38;;;;;;;;;;;12.60;99.90;;;;;;5023812;28;19927;-73
2023/06/07 04:11:06;;;;;;;;;;;12.60;99.90;;;;;;5024020;28;19989;-72
2023/06/07 04:13:32;;;;;;;;;;;12.60;99.90;;;;;;5043700;28;20094;-71
2023/06/07 04:15:59;;;;;;;;;;;12.60;99.90;;;;;;5042595;28;19956;-71
2023/06/07 04:18:27;;;;;;;;;;;12.70;99.90;;;;;;5043571;28;19921;-71
2023/06/07 04:20:54;;;;;;;;;;;12.60;99.90;;;;;;5043547;28;19989;-71
2023/06/07 04:23:20;;;;;;;;;;;12.70;99.90;;;;;;5043278;28;19983;-71
2023/06/07 04:25:47;;;;;;;;;;;12.70;99.90;;;;;;5042286;28;19925;-72
2023/06/07 04:28:45;;;;;;;;;;;12.70;99.90;;;;;;5027245;28;19973;-71
2023/06/07 04:31:12;;;;;;;;;;;12.70;99.90;;;;;;5043049;28;19921;-70
2023/06/07 04:33:41;;;;;;;;;;;12.70;99.90;;;;;;5043176;28;19963;-71
2023/06/07 04:42:11;;;;;;;;;;;12.60;99.90;;;;;;5037730;28;20197;-71
2023/06/07 04:44:38;;;;;;;;;;;12.60;99.90;;;;;;5042032;28;20094;-72
2023/06/07 04:47:05;;;;;;;;;;;12.70;99.90;;;;;;5043278;28;19927;-72
2023/06/07 04:49:34;;;;;;;;;;;12.70;99.90;;;;;;5043203;28;20235;-72
2023/06/07 04:52:02;;;;;;;;;;;12.80;99.90;;;;;;5034806;28;19984;-71
2023/06/07 04:54:36;;;;;;;;;;;12.90;99.90;;;;;;5042796;28;19957;-72
2023/06/07 05:00:04;;;;;;;;;;;13.00;99.90;;;;;;5035304;28;20208;-72
2023/06/07 05:02:44;;;;;;;;;;;13.00;99.90;;;;;;5040274;28;19953;-71
2023/06/07 05:05:34;;;;;;;;;;;13.00;99.90;;;;;;5041555;28;19927;-72
2023/06/07 05:08:11;;;;;;;;;;;13.00;99.90;;;;;;5035137;28;19988;-72
2023/06/07 05:11:27;;;;;;;;;;;13.10;99.90;;;;;;5042867;28;19928;-71
2023/06/07 05:13:56;;;;;;;;;;;13.10;99.90;;;;;;5036136;28;19928;-70
2023/06/07 05:16:24;;;;;;;;;;;13.20;99.90;;;;;;5045809;28;20093;-70
2023/06/07 05:18:51;;;;;;;;;;;13.20;99.90;;;;;;5046951;28;19995;-71
2023/06/07 05:21:20;;;;;;;;;;;13.30;99.90;;;;;;5037536;28;19952;-74
2023/06/07 05:23:48;;;;;;;;;;;13.20;99.90;;;;;;5046500;28;19983;-71
2023/06/07 05:26:22;;;;;;;;;;;13.30;99.90;;;;;;5043962;28;19928;-71
2023/06/07 05:28:48;;;;;;;;;;;13.40;99.90;;;;;;5034245;28;20204;-71
2023/06/07 05:31:30;;;;;;;;;;;13.50;99.90;;;;;;5039148;28;19921;-72
2023/06/07 05:33:57;;;;;;;;;;;13.60;99.90;;;;;;5027869;28;19933;-71
2023/06/07 05:36:23;;;;;;;;;;;13.70;99.90;;;;;;5046123;28;19968;-69
2023/06/07 05:39:23;;;;;;;;;;;13.80;99.90;;;;;;5046143;28;19921;-71
2023/06/07 05:41:50;;;;;;;;;;;13.80;99.90;;;;;;5041349;28;19921;-70
2023/06/07 05:50:19;;;;;;;;;;;14.10;99.90;;;;;;5039694;28;19976;-72
2023/06/07 05:52:46;;;;;;;;;;;14.10;99.90;;;;;;5043092;28;19988;-71
2023/06/07 05:55:14;;;;;;;;;;;14.10;99.90;;;;;;5045157;28;19927;-71
2023/06/07 05:57:43;;;;;;;;;;;14.20;99.90;;;;;;5045778;28;19956;-70
2023/06/07 06:00:11;;;;;;;;;;;14.30;99.90;;;;;;5046051;28;19929;-70
2023/06/07 06:02:38;;;;;;;;;;;14.40;99.90;;;;;;5045886;28;19983;-70
2023/06/07 06:05:06;;;;;;;;;;;14.50;99.90;;;;;;5044883;28;19921;-69
2023/06/07 06:07:32;;;;;;;;;;;14.60;99.90;;;;;;5044865;28;19991;-71
2023/06/07 06:09:59;;;;;;;;;;;14.70;99.90;;;;;;5042058;28;19921;-72
2023/06/07 06:12:27;;;;;;;;;;;14.80;99.90;;;;;;5045439;28;20276;-70
2023/06/07 06:14:53;;;;;;;;;;;14.80;99.90;;;;;;5044859;28;19984;-70
2023/06/07 06:17:20;;;;;;;;;;;14.90;99.90;;;;;;5039035;28;20180;-70
2023/06/07 06:19:47;;;;;;;;;;;15.00;99.90;;;;;;5045946;28;19927;-70
2023/06/07 06:22:14;;;;;;;;;;;15.10;99.90;;;;;;5045953;28;19993;-71
2023/06/07 06:24:40;;;;;;;;;;;15.20;99.90;;;;;;5046887;28;19921;-73
2023/06/07 06:27:07;;;;;;;;;;;15.20;99.90;;;;;;5046507;28;20232;-70
2023/06/07 06:29:35;;;;;;;;;;;15.30;99.90;;;;;;5046531;28;19921;-71
2023/06/07 06:32:02;;;;;;;;;;;15.50;99.90;;;;;;5045920;28;20149;-70
2023/06/07 06:34:29;;;;;;;;;;;15.60;99.90;;;;;;5033356;28;19960;-71
2023/06/07 06:36:57;;;;;;;;;;;15.70;99.90;;;;;;5027610;28;19940;-71
2023/06/07 06:39:24;;;;;;;;;;;15.80;99.90;;;;;;5044901;28;20112;-70
2023/06/07 06:41:51;;;;;;;;;;;15.90;99.90;;;;;;5034494;28;20156;-71
2023/06/07 06:44:18;;;;;;;;;;;15.90;99.90;;;;;;5042204;28;19929;-71
2023/06/07 06:46:46;;;;;;;;;;;16.00;99.90;;;;;;5044898;28;19928;-71
2023/06/07 06:49:13;;;;;;;;;;;16.10;99.90;;;;;;5044577;28;19980;-71
2023/06/07 06:51:40;;;;;;;;;;;16.20;99.90;;;;;;5043381;28;19980;-71
2023/06/07 06:54:06;;;;;;;;;;;16.30;99.90;;;;;;5043601;28;20562;-71
2023/06/07 06:56:33;;;;;;;;;;;16.30;99.90;;;;;;5044806;28;19992;-71
2023/06/07 06:58:59;;;;;;;;;;;16.40;99.90;;;;;;5044445;28;19927;-70
2023/06/07 07:01:42;;;;;;;;;;;16.40;99.90;;;;;;5044892;28;19956;-72
2023/06/07 07:04:10;;;;;;;;;;;16.50;99.90;;;;;;5044026;28;19984;-71
2023/06/07 07:06:37;;;;;;;;;;;16.60;99.90;;;;;;5044641;28;19960;-71
2023/06/07 07:09:04;;;;;;;;;;;16.60;99.90;;;;;;5044432;28;20172;-71
2023/06/07 07:11:30;;;;;;;;;;;16.70;99.90;;;;;;5044431;28;19967;-70
2023/06/07 07:13:57;;;;;;;;;;;16.80;99.90;;;;;;5044324;28;19921;-71
2023/06/07 07:16:23;;;;;;;;;;;16.90;99.90;;;;;;5044097;28;20219;-71
2023/06/07 07:18:50;;;;;;;;;;;16.90;99.90;;;;;;5044525;28;19983;-71
2023/06/07 07:21:18;;;;;;;;;;;17.00;99.90;;;;;;5044256;28;20148;-71
2023/06/07 07:23:46;;;;;;;;;;;17.10;99.90;;;;;;5044152;28;19921;-71
2023/06/07 07:26:13;;;;;;;;;;;17.10;99.90;;;;;;5041222;28;20123;-71
2023/06/07 07:28:40;;;;;;;;;;;17.30;99.90;;;;;;5044199;28;19927;-71
2023/06/07 07:31:07;;;;;;;;;;;17.40;99.90;;;;;;5044390;28;19992;-69
2023/06/07 07:33:33;;;;;;;;;;;17.50;99.90;;;;;;5044103;28;20231;-71
2023/06/07 07:36:02;;;;;;;;;;;17.50;99.90;;;;;;5043467;28;19988;-70
2023/06/07 07:38:32;;;;;;;;;;;17.60;99.90;;;;;;5043382;28;19991;-71
2023/06/07 07:40:59;;;;;;;;;;;17.70;99.90;;;;;;5044295;28;19921;-69
2023/06/07 07:43:26;;;;;;;;;;;17.70;99.90;;;;;;5043771;28;20216;-71
2023/06/07 07:45:52;;;;;;;;;;;17.80;99.90;;;;;;5042845;28;19956;-69
2023/06/07 07:48:19;;;;;;;;;;;17.90;99.90;;;;;;5043821;28;20013;-71
2023/06/07 07:50:47;;;;;;;;;;;18.00;99.90;;;;;;5041146;28;19921;-71
2023/06/07 07:53:13;;;;;;;;;;;18.10;99.90;;;;;;5041127;28;19921;-69
2023/06/07 07:55:41;;;;;;;;;;;18.20;99.90;;;;;;5043602;28;19927;-71
2023/06/07 07:58:08;;;;;;;;;;;18.20;99.90;;;;;;5043751;28;19921;-70
2023/06/07 08:00:35;;;;;;;;;;;18.20;99.90;;;;;;5043469;28;19921;-71
2023/06/07 08:03:03;;;;;;;;;;;18.30;99.90;;;;;;5043578;28;19928;-69
2023/06/07 08:05:29;;;;;;;;;;;18.40;99.90;;;;;;5043087;28;19921;-71
2023/06/07 08:07:56;;;;;;;;;;;18.40;99.90;;;;;;5043706;28;19921;-70
2023/06/07 08:10:22;;;;;;;;;;;18.50;99.90;;;;;;5043296;28;20023;-71
2023/06/07 08:12:50;;;;;;;;;;;18.60;99.90;;;;;;5043270;28;19984;-71
2023/06/07 08:15:17;;;;;;;;;;;18.70;99.90;;;;;;5042370;28;19956;-71
2023/06/07 08:17:44;;;;;;;;;;;18.70;99.90;;;;;;5043467;28;19980;-71
2023/06/07 08:20:11;;;;;;;;;;;18.80;99.90;;;;;;5043098;28;20281;-70
2023/06/07 08:22:38;;;;;;;;;;;19.00;99.90;;;;;;5043548;28;19921;-71
2023/06/07 08:25:05;;;;;;;;;;;19.10;99.90;;;;;;5042529;28;19921;-71
2023/06/07 08:27:32;;;;;;;;;;;19.20;99.90;;;;;;5043308;28;19988;-71
2023/06/07 08:30:00;;;;;;;;;;;19.30;99.90;;;;;;5043099;28;19948;-70
2023/06/07 08:32:26;;;;;;;;;;;19.50;99.90;;;;;;5043023;28;20184;-69
2023/06/07 08:34:54;;;;;;;;;;;19.60;99.90;;;;;;5042298;28;19921;-70
2023/06/07 08:37:21;;;;;;;;;;;19.60;99.90;;;;;;5044088;28;19925;-70
2023/06/07 08:39:48;;;;;;;;;;;19.60;99.90;;;;;;5043245;28;19996;-71
2023/06/07 08:42:14;;;;;;;;;;;19.50;99.90;;;;;;5043115;28;19953;-68
2023/06/07 08:44:41;;;;;;;;;;;19.50;99.90;;;;;;5042247;28;19943;-70
2023/06/07 08:47:12;;;;;;;;;;;19.60;99.90;;;;;;5043193;28;19928;-71
2023/06/07 08:49:40;;;;;;;;;;;19.70;99.90;;;;;;5045397;28;19988;-71
2023/06/07 08:52:09;;;;;;;;;;;19.80;99.90;;;;;;5044409;28;19929;-71
2023/06/07 08:54:37;;;;;;;;;;;19.70;99.90;;;;;;5046421;28;20205;-71
2023/06/07 08:57:04;;;;;;;;;;;19.70;99.90;;;;;;5046830;28;19928;-69
2023/06/07 08:59:30;;;;;;;;;;;19.70;99.90;;;;;;5047085;28;19921;-71
2023/06/07 09:01:57;;;;;;;;;;;19.70;99.90;;;;;;5046775;28;19921;-70
2023/06/07 09:04:25;;;;;;;;;;;19.70;99.90;;;;;;5045940;28;19963;-71
2023/06/07 09:06:52;;;;;;;;;;;19.70;99.90;;;;;;5044040;28;19928;-71
2023/06/07 09:09:19;;;;;;;;;;;19.70;99.90;;;;;;5046620;28;19956;-71
2023/06/07 09:11:50;;;;;;;;;;;19.60;99.90;;;;;;5046961;28;19921;-68
2023/06/07 09:14:17;;;;;;;;;;;19.60;99.90;;;;;;5034293;28;19928;-71
2023/06/07 09:16:53;;;;;;;;;;;19.60;99.90;;;;;;5026631;28;19921;-71
2023/06/07 09:19:35;;;;;;;;;;;19.60;99.90;;;;;;5027056;28;19925;-71
2023/06/07 09:22:03;;;;;;;;;;;19.60;99.90;;;;;;5029740;28;19921;-71
2023/06/07 09:24:30;;;;;;;;;;;19.60;99.90;;;;;;5045966;28;19960;-70
2023/06/07 09:26:57;;;;;;;;;;;19.70;99.90;;;;;;5045944;28;20164;-72
2023/06/07 09:29:24;;;;;;;;;;;19.70;99.90;;;;;;5046780;28;19921;-70
2023/06/07 09:31:50;;;;;;;;;;;19.70;99.90;;;;;;5046554;28;19921;-69
2023/06/07 09:34:21;;;;;;;;;;;19.80;99.90;;;;;;5045742;28;19921;-71
2023/06/07 09:36:51;;;;;;;;;;;19.80;99.90;;;;;;5026287;28;19953;-71
2023/06/07 09:39:23;;;;;;;;;;;20.00;99.90;;;;;;5026840;28;19929;-71
2023/06/07 09:41:51;;;;;;;;;;;20.20;99.90;;;;;;5026633;28;19925;-70
2023/06/07 09:44:21;;;;;;;;;;;20.20;99.90;;;;;;5026623;28;19933;-73
2023/06/07 09:46:48;;;;;;;;;;;20.30;99.90;;;;;;5026791;28;20116;-71
2023/06/07 09:49:54;;;;;;;;;;;20.40;99.90;;;;;;5027074;28;19922;-71
2023/06/07 09:52:21;;;;;;;;;;;20.50;99.90;;;;;;5017927;28;19921;-70
2023/06/07 09:54:49;;;;;;;;;;;20.70;99.90;;;;;;5025712;28;20113;-70
2023/06/07 09:57:51;;;;;;;;;;;20.80;99.90;;;;;;5026036;28;19960;-73
2023/06/07 10:00:25;;;;;;;;;;;20.90;99.90;;;;;;5023949;28;19921;-69
2023/06/07 10:02:52;;;;;;;;;;;21.00;99.90;;;;;;5026106;28;20241;-69
2023/06/07 10:05:21;;;;;;;;;;;20.90;99.90;;;;;;5030162;28;19981;-70
2023/06/07 10:07:49;;;;;;;;;;;21.00;99.90;;;;;;5045808;28;19935;-69
2023/06/07 10:10:21;;;;;;;;;;;21.00;99.90;;;;;;5045488;28;19921;-69
2023/06/07 10:12:50;;;;;;;;;;;21.00;99.90;;;;;;5046042;28;19928;-69
2023/06/07 10:15:42;;;;;;;;;;;21.30;99.90;;;;;;5045017;28;19947;-69
2023/06/07 10:18:12;;;;;;;;;;;21.50;99.90;;;;;;5045357;28;20449;-69
2023/06/07 10:20:40;;;;;;;;;;;21.60;99.90;;;;;;5045570;28;19921;-69
2023/06/07 10:23:08;;;;;;;;;;;21.90;99.90;;;;;;5045146;28;19921;-70
2023/06/07 10:25:38;;;;;;;;;;;22.20;99.90;;;;;;5044590;28;20128;-70
2023/06/07 10:28:17;;;;;;;;;;;22.10;99.90;;;;;;5044900;28;20312;-70
2023/06/07 10:30:57;;;;;;;;;;;22.00;99.90;;;;;;5037564;28;19988;-70
2023/06/07 10:33:25;;;;;;;;;;;22.00;99.90;;;;;;5039514;28;20094;-68
2023/06/07 10:35:52;;;;;;;;;;;21.90;99.90;;;;;;5043170;28;19944;-69
2023/06/07 10:38:19;;;;;;;;;;;21.90;99.90;;;;;;5024479;28;19988;-70
2023/06/07 10:40:47;;;;;;;;;;;22.00;99.90;;;;;;5042529;28;19925;-69
2023/06/07 10:43:15;;;;;;;;;;;22.20;99.90;;;;;;5042208;28;19921;-69
2023/06/07 10:45:42;;;;;;;;;;;22.40;99.90;;;;;;5043804;28;19921;-70
2023/06/07 10:48:27;;;;;;;;;;;22.50;99.90;;;;;;5044704;28;19984;-70
2023/06/07 10:50:54;;;;;;;;;;;22.40;99.90;;;;;;5044880;28;19921;-70
2023/06/07 10:53:29;;;;;;;;;;;22.50;99.90;;;;;;5044961;28;20003;-71
2023/06/07 10:55:57;;;;;;;;;;;22.50;99.90;;;;;;5043796;28;19929;-70
2023/06/07 10:58:27;;;;;;;;;;;22.50;99.90;;;;;;5044264;28;19928;-70
2023/06/07 11:00:54;;;;;;;;;;;22.50;99.90;;;;;;5044662;28;19925;-70
2023/06/07 11:03:40;;;;;;;;;;;22.40;99.90;;;;;;5044791;28;19952;-69
2023/06/07 11:06:10;;;;;;;;;;;22.40;99.90;;;;;;5043801;28;19959;-71
2023/06/07 11:08:38;;;;;;;;;;;22.40;99.90;;;;;;5042380;28;19944;-71
2023/06/07 11:11:19;;;;;;;;;;;22.50;99.90;;;;;;5044525;28;19929;-71
2023/06/07 11:14:04;;;;;;;;;;;22.50;99.90;;;;;;5026164;28;20195;-70
2023/06/07 11:16:36;;;;;;;;;;;22.40;99.90;;;;;;5044055;28;20000;-71
2023/06/07 11:19:05;;;;;;;;;;;22.40;99.90;;;;;;5049397;28;19929;-71
2023/06/07 11:22:00;;;;;;;;;;;22.40;99.90;;;;;;5063275;28;19920;-71
2023/06/07 11:24:26;;;;;;;;;;;22.30;99.90;;;;;;5062560;28;20505;-70
2023/06/07 11:26:53;;;;;;;;;;;22.30;99.90;;;;;;5062426;28;19927;-69
2023/06/07 11:29:20;;;;;;;;;;;22.30;99.90;;;;;;5042396;28;19928;-71
2023/06/07 11:32:10;;;;;;;;;;;22.30;99.90;;;;;;5044101;28;19921;-72
2023/06/07 11:34:38;;;;;;;;;;;22.50;99.90;;;;;;5042620;28;20003;-70
2023/06/07 11:37:12;;;;;;;;;;;22.90;99.90;;;;;;5043997;28;20128;-70
2023/06/07 11:39:38;;;;;;;;;;;23.30;99.90;;;;;;5043402;28;19960;-71
2023/06/07 11:42:06;;;;;;;;;;;23.80;99.90;;;;;;5041606;28;19921;-70
2023/06/07 11:44:39;;;;;;;;;;;24.20;99.90;;;;;;5043232;28;19963;-69
2023/06/07 11:47:07;;;;;;;;;;;24.60;99.90;;;;;;5033308;28;19993;-70
2023/06/07 11:49:35;;;;;;;;;;;24.90;99.90;;;;;;5024122;28;19921;-71
2023/06/07 11:52:15;;;;;;;;;;;25.20;99.90;;;;;;5023739;28;19929;-71
2023/06/07 11:55:10;;;;;;;;;;;25.30;99.90;;;;;;5023163;28;20004;-71
2023/06/07 11:57:38;;;;;;;;;;;25.40;99.90;;;;;;5023481;28;19960;-69
2023/06/07 12:00:08;;;;;;;;;;;25.50;99.90;;;;;;5023956;28;19960;-71
2023/06/07 12:02:38;;;;;;;;;;;25.50;99.90;;;;;;5036569;28;19928;-69
2023/06/07 12:05:06;;;;;;;;;;;25.40;99.90;;;;;;5041820;28;20167;-70
2023/06/07 12:07:34;;;;;;;;;;;25.30;99.90;;;;;;5043670;28;19925;-70
2023/06/07 12:10:00;;;;;;;;;;;24.90;99.90;;;;;;5043118;28;20117;-70
2023/06/07 12:12:27;;;;;;;;;;;24.50;99.90;;;;;;5043017;28;19980;-69
2023/06/07 12:15:00;;;;;;;;;;;24.20;99.90;;;;;;5042302;28;19952;-70
2023/06/07 12:17:29;;;;;;;;;;;24.00;99.90;;;;;;5041802;28;19925;-69
2023/06/07 12:20:06;;;;;;;;;;;24.00;99.90;;;;;;5043075;28;19992;-70
2023/06/07 12:22:34;;;;;;;;;;;24.30;99.90;;;;;;5037492;28;19968;-70
2023/06/07 12:25:07;;;;;;;;;;;24.80;99.90;;;;;;5040682;28;19929;-70
2023/06/07 12:27:36;;;;;;;;;;;25.10;99.90;;;;;;5039173;28;20241;-70
2023/06/07 12:30:04;;;;;;;;;;;25.40;99.90;;;;;;5043073;28;19960;-70
2023/06/07 12:32:31;;;;;;;;;;;25.50;99.90;;;;;;5042235;28;20236;-70
2023/06/07 12:35:01;;;;;;;;;;;25.50;99.90;;;;;;5041556;28;20394;-70
2023/06/07 12:37:27;;;;;;;;;;;25.40;99.90;;;;;;5041497;28;19963;-72
2023/06/07 12:39:55;;;;;;;;;;;25.20;99.90;;;;;;5041927;28;19921;-70
2023/06/07 12:42:22;;;;;;;;;;;25.30;99.90;;;;;;5041772;28;20101;-70
2023/06/07 12:44:50;;;;;;;;;;;25.20;99.90;;;;;;5041020;28;19952;-70
2023/06/07 12:47:17;;;;;;;;;;;25.10;99.90;;;;;;5042242;28;19921;-70
2023/06/07 12:49:44;;;;;;;;;;;25.00;99.90;;;;;;5043204;28;19952;-70
2023/06/07 12:52:10;;;;;;;;;;;24.90;99.90;;;;;;5043002;28;19921;-71
2023/06/07 12:54:37;;;;;;;;;;;25.20;99.90;;;;;;5041729;28;19980;-70
2023/06/07 12:57:05;;;;;;;;;;;25.70;99.90;;;;;;5042517;28;19981;-71
2023/06/07 12:59:32;;;;;;;;;;;26.20;99.90;;;;;;5042522;28;19928;-70
2023/06/07 13:01:59;;;;;;;;;;;26.50;99.90;;;;;;5042090;28;20236;-70
2023/06/07 13:04:25;;;;;;;;;;;26.60;99.90;;;;;;5041432;28;20227;-71
2023/06/07 13:06:52;;;;;;;;;;;26.70;99.90;;;;;;5042506;28;19948;-72
2023/06/07 13:09:19;;;;;;;;;;;26.70;99.90;;;;;;5042070;28;19980;-69
2023/06/07 13:11:46;;;;;;;;;;;26.50;99.90;;;;;;5042147;28;19929;-72
2023/06/07 13:14:14;;;;;;;;;;;26.10;99.90;;;;;;5041481;28;19951;-69
2023/06/07 13:16:41;;;;;;;;;;;25.90;99.90;;;;;;5042235;28;19929;-72
2023/06/07 13:19:08;;;;;;;;;;;25.90;99.90;;;;;;5042446;28;19921;-76
2023/06/07 13:21:34;;;;;;;;;;;25.80;99.90;;;;;;5042633;28;19967;-72
2023/06/07 13:24:01;;;;;;;;;;;25.60;99.90;;;;;;5040614;28;19985;-71
2023/06/07 13:26:27;;;;;;;;;;;25.50;99.90;;;;;;5041994;28;19984;-70
2023/06/07 13:28:55;;;;;;;;;;;25.30;99.90;;;;;;5038245;28;19996;-70
2023/06/07 13:31:25;;;;;;;;;;;25.50;99.90;;;;;;5032460;28;19921;-70
2023/06/07 13:33:51;;;;;;;;;;;25.80;99.90;;;;;;5042282;28;20201;-71
2023/06/07 13:36:18;;;;;;;;;;;26.20;99.90;;;;;;5043622;28;19985;-72
2023/06/07 13:38:45;;;;;;;;;;;26.70;99.90;;;;;;5046027;28;19928;-72
2023/06/07 13:41:12;;;;;;;;;;;27.10;99.90;;;;;;5045133;28;19921;-70
2023/06/07 13:43:38;;;;;;;;;;;27.50;99.90;;;;;;5045843;28;19992;-71
2023/06/07 13:46:05;;;;;;;;;;;27.90;99.90;;;;;;5040827;28;20036;-71
2023/06/07 13:48:34;;;;;;;;;;;28.20;99.90;;;;;;5045863;28;19929;-71
2023/06/07 13:51:04;;;;;;;;;;;28.40;99.90;;;;;;5043227;28;19921;-71
2023/06/07 13:53:31;;;;;;;;;;;28.60;99.90;;;;;;5045977;28;19925;-71
2023/06/07 13:55:58;;;;;;;;;;;28.70;97.90;;;;;;5045009;28;20157;-71
2023/06/07 13:58:24;;;;;;;;;;;28.80;97.50;;;;;;5046090;28;19984;-71
2023/06/07 14:00:52;;;;;;;;;;;28.60;97.10;;;;;;5041975;28;19992;-71
2023/06/07 14:03:19;;;;;;;;;;;28.60;96.90;;;;;;5045502;28;19921;-71
2023/06/07 14:05:48;;;;;;;;;;;28.60;97.30;;;;;;5044746;28;19921;-71
2023/06/07 14:08:15;;;;;;;;;;;28.60;97.20;;;;;;5045452;28;19929;-70
2023/06/07 14:10:42;;;;;;;;;;;28.80;97.60;;;;;;5040967;28;19921;-70
2023/06/07 14:13:08;;;;;;;;;;;29.00;96.80;;;;;;5043565;28;19989;-71
2023/06/07 14:15:35;;;;;;;;;;;29.20;95.90;;;;;;5044865;28;19960;-71
2023/06/07 14:18:02;;;;;;;;;;;29.30;96.00;;;;;;5044977;28;19957;-71
2023/06/07 14:20:28;;;;;;;;;;;29.60;96.20;;;;;;5045227;28;19920;-71
2023/06/07 14:22:56;;;;;;;;;;;29.90;96.30;;;;;;5044084;28;19984;-70
2023/06/07 14:25:23;;;;;;;;;;;30.10;94.00;;;;;;5038584;28;19964;-70
2023/06/07 14:27:49;;;;;;;;;;;30.10;94.90;;;;;;5044820;28;19921;-71
2023/06/07 14:30:16;;;;;;;;;;;29.70;94.30;;;;;;5031335;28;20028;-71
2023/06/07 14:32:43;;;;;;;;;;;29.10;93.60;;;;;;5025536;28;19928;-72
2023/06/07 14:35:10;;;;;;;;;;;28.50;94.20;;;;;;5031326;28;19989;-71
2023/06/07 14:37:36;;;;;;;;;;;28.00;94.80;;;;;;5041548;28;19981;-71
2023/06/07 14:40:05;;;;;;;;;;;27.60;95.10;;;;;;5043738;28;20280;-71
2023/06/07 14:42:31;;;;;;;;;;;27.20;95.30;;;;;;5042844;28;19929;-71